sensor_id;sensor_type;location;lat;lon;timestamp;pressure;altitude;pressure_sealevel;temperature;humidity
61524;BME280;47393;38.758;-9.164;2022-07-06T00:00:32;100808.19;;;16.11;100.00
61524;BME280;47393;38.758;-9.164;2022-07-06T00:02:36;100806.69;;;16.26;100.00
61524;BME280;47393;38.758;-9.164;2022-07-06T00:04:37;100812.16;;;16.25;100.00
61524;BME280;47393;38.758;-9.164;2022-07-06T00:06:38;100802.50;;;16.24;100.00
61524;BME280;47393;38.758;-9.164;2022-07-06T00:08:39;100807.56;;;16.17;100.00
61524;BME280;47393;38.758;-9.164;2022-07-06T00:10:40;100780.91;;;16.01;100.00
61524;BME280;47393;38.758;-9.164;2022-07-06T00:12:41;100798.84;;;16.07;100.00
61524;BME280;47393;38.758;-9.164;2022-07-06T00:14:44;100794.31;;;16.17;100.00
61524;BME280;47393;38.758;-9.164;2022-07-06T00:16:45;100786.28;;;16.27;100.00
61524;BME280;47393;38.758;-9.164;2022-07-06T00:18:46;100766.28;;;16.15;100.00
61524;BME280;47393;38.758;-9.164;2022-07-06T00:20:47;100780.34;;;16.33;100.00
61524;BME280;47393;38.758;-9.164;2022-07-06T00:22:51;100784.44;;;16.27;100.00
61524;BME280;47393;38.758;-9.164;2022-07-06T00:27:14;100757.22;;;16.07;100.00
61524;BME280;47393;38.758;-9.164;2022-07-06T00:29:18;100727.75;;;15.93;100.00
61524;BME280;47393;38.758;-9.164;2022-07-06T00:31:23;100714.03;;;15.79;100.00
61524;BME280;47393;38.758;-9.164;2022-07-06T00:33:24;100780.53;;;16.14;100.00
61524;BME280;47393;38.758;-9.164;2022-07-06T00:35:26;100779.56;;;16.15;100.00
61524;BME280;47393;38.758;-9.164;2022-07-06T00:37:28;100757.69;;;16.03;100.00
61524;BME280;47393;38.758;-9.164;2022-07-06T00:39:29;100754.56;;;16.07;100.00
61524;BME280;47393;38.758;-9.164;2022-07-06T00:41:32;100773.47;;;16.22;100.00
61524;BME280;47393;38.758;-9.164;2022-07-06T00:43:53;100782.97;;;16.25;100.00
61524;BME280;47393;38.758;-9.164;2022-07-06T00:45:54;100790.00;;;16.16;100.00
61524;BME280;47393;38.758;-9.164;2022-07-06T00:47:55;100759.44;;;15.94;100.00
61524;BME280;47393;38.758;-9.164;2022-07-06T00:49:56;100776.56;;;16.00;100.00
61524;BME280;47393;38.758;-9.164;2022-07-06T00:52:19;100755.56;;;15.88;100.00
61524;BME280;47393;38.758;-9.164;2022-07-06T00:54:20;100780.59;;;16.04;100.00
61524;BME280;47393;38.758;-9.164;2022-07-06T00:56:21;100744.72;;;15.82;100.00
61524;BME280;47393;38.758;-9.164;2022-07-06T00:58:23;100689.84;;;15.54;100.00
61524;BME280;47393;38.758;-9.164;2022-07-06T01:00:26;100755.94;;;15.94;100.00
61524;BME280;47393;38.758;-9.164;2022-07-06T01:02:33;100720.25;;;15.60;100.00
61524;BME280;47393;38.758;-9.164;2022-07-06T01:04:34;100696.63;;;15.49;100.00
61524;BME280;47393;38.758;-9.164;2022-07-06T01:06:36;100764.38;;;15.89;100.00
61524;BME280;47393;38.758;-9.164;2022-07-06T01:08:38;100699.38;;;15.47;100.00
61524;BME280;47393;38.758;-9.164;2022-07-06T01:10:39;100753.09;;;15.77;100.00
61524;BME280;47393;38.758;-9.164;2022-07-06T01:12:41;100750.09;;;15.90;100.00
61524;BME280;47393;38.758;-9.164;2022-07-06T01:14:43;100731.88;;;15.77;100.00
61524;BME280;47393;38.758;-9.164;2022-07-06T01:16:44;100709.13;;;15.56;100.00
61524;BME280;47393;38.758;-9.164;2022-07-06T01:18:47;100752.22;;;15.86;100.00
61524;BME280;47393;38.758;-9.164;2022-07-06T01:20:48;100745.13;;;15.77;100.00
61524;BME280;47393;38.758;-9.164;2022-07-06T01:22:52;100726.34;;;15.70;100.00
61524;BME280;47393;38.758;-9.164;2022-07-06T01:24:55;100663.03;;;15.39;100.00
61524;BME280;47393;38.758;-9.164;2022-07-06T01:26:56;100744.94;;;15.88;100.00
61524;BME280;47393;38.758;-9.164;2022-07-06T01:28:57;100739.16;;;15.75;100.00
61524;BME280;47393;38.758;-9.164;2022-07-06T01:30:58;100718.28;;;15.62;100.00
61524;BME280;47393;38.758;-9.164;2022-07-06T01:32:59;100730.44;;;15.65;100.00
61524;BME280;47393;38.758;-9.164;2022-07-06T01:35:03;100748.88;;;15.84;100.00
61524;BME280;47393;38.758;-9.164;2022-07-06T01:37:06;100743.31;;;15.78;100.00
61524;BME280;47393;38.758;-9.164;2022-07-06T01:39:09;100749.06;;;15.73;100.00
61524;BME280;47393;38.758;-9.164;2022-07-06T01:41:11;100738.88;;;15.50;100.00
61524;BME280;47393;38.758;-9.164;2022-07-06T01:43:15;100729.31;;;15.39;100.00
61524;BME280;47393;38.758;-9.164;2022-07-06T01:45:16;100742.06;;;15.54;100.00
61524;BME280;47393;38.758;-9.164;2022-07-06T01:47:17;100739.03;;;15.49;100.00
61524;BME280;47393;38.758;-9.164;2022-07-06T01:49:19;100706.00;;;15.43;100.00
61524;BME280;47393;38.758;-9.164;2022-07-06T01:51:20;100729.97;;;15.69;100.00
61524;BME280;47393;38.758;-9.164;2022-07-06T01:53:21;100677.53;;;15.17;100.00
61524;BME280;47393;38.758;-9.164;2022-07-06T01:55:25;100709.22;;;15.37;100.00
61524;BME280;47393;38.758;-9.164;2022-07-06T01:57:28;100701.38;;;15.45;100.00
61524;BME280;47393;38.758;-9.164;2022-07-06T01:59:33;100724.63;;;15.51;100.00
61524;BME280;47393;38.758;-9.164;2022-07-06T02:01:34;100700.91;;;15.32;100.00
61524;BME280;47393;38.758;-9.164;2022-07-06T02:03:36;100706.13;;;15.42;100.00
61524;BME280;47393;38.758;-9.164;2022-07-06T02:05:38;100727.19;;;15.43;100.00
61524;BME280;47393;38.758;-9.164;2022-07-06T02:07:39;100727.88;;;15.45;100.00
61524;BME280;47393;38.758;-9.164;2022-07-06T02:09:45;100718.66;;;15.49;100.00
61524;BME280;47393;38.758;-9.164;2022-07-06T02:11:46;100703.41;;;15.51;100.00
61524;BME280;47393;38.758;-9.164;2022-07-06T02:13:49;100714.53;;;15.65;100.00
61524;BME280;47393;38.758;-9.164;2022-07-06T02:15:50;100676.19;;;15.31;100.00
61524;BME280;47393;38.758;-9.164;2022-07-06T02:17:53;100693.00;;;15.40;100.00
61524;BME280;47393;38.758;-9.164;2022-07-06T02:19:58;100707.84;;;15.61;100.00
61524;BME280;47393;38.758;-9.164;2022-07-06T02:22:03;100668.78;;;15.35;100.00
61524;BME280;47393;38.758;-9.164;2022-07-06T02:24:07;100676.75;;;15.35;100.00
61524;BME280;47393;38.758;-9.164;2022-07-06T02:26:09;100707.69;;;15.62;100.00
61524;BME280;47393;38.758;-9.164;2022-07-06T02:28:13;100716.63;;;15.61;100.00
61524;BME280;47393;38.758;-9.164;2022-07-06T02:30:15;100693.88;;;15.40;100.00
61524;BME280;47393;38.758;-9.164;2022-07-06T02:32:25;100698.72;;;15.45;100.00
61524;BME280;47393;38.758;-9.164;2022-07-06T02:34:27;100703.63;;;15.40;100.00
61524;BME280;47393;38.758;-9.164;2022-07-06T02:36:29;100721.66;;;15.54;100.00
61524;BME280;47393;38.758;-9.164;2022-07-06T02:38:30;100699.28;;;15.49;100.00
61524;BME280;47393;38.758;-9.164;2022-07-06T02:40:32;100711.06;;;15.54;100.00
61524;BME280;47393;38.758;-9.164;2022-07-06T02:42:33;100676.03;;;15.33;100.00
61524;BME280;47393;38.758;-9.164;2022-07-06T02:44:35;100702.59;;;15.51;100.00
61524;BME280;47393;38.758;-9.164;2022-07-06T02:46:35;100712.44;;;15.58;100.00
61524;BME280;47393;38.758;-9.164;2022-07-06T02:48:36;100704.13;;;15.53;100.00
61524;BME280;47393;38.758;-9.164;2022-07-06T02:50:37;100687.88;;;15.38;100.00
61524;BME280;47393;38.758;-9.164;2022-07-06T02:52:39;100700.00;;;15.41;100.00
61524;BME280;47393;38.758;-9.164;2022-07-06T02:54:40;100680.91;;;15.37;100.00
61524;BME280;47393;38.758;-9.164;2022-07-06T02:56:40;100698.63;;;15.37;100.00
61524;BME280;47393;38.758;-9.164;2022-07-06T02:58:43;100704.03;;;15.45;100.00
61524;BME280;47393;38.758;-9.164;2022-07-06T03:00:43;100705.25;;;15.51;100.00
61524;BME280;47393;38.758;-9.164;2022-07-06T03:02:44;100705.00;;;15.44;100.00
61524;BME280;47393;38.758;-9.164;2022-07-06T03:04:47;100686.13;;;15.29;100.00
61524;BME280;47393;38.758;-9.164;2022-07-06T03:06:49;100654.75;;;14.97;100.00
61524;BME280;47393;38.758;-9.164;2022-07-06T03:08:50;100677.88;;;15.32;100.00
61524;BME280;47393;38.758;-9.164;2022-07-06T03:10:51;100704.66;;;15.29;100.00
61524;BME280;47393;38.758;-9.164;2022-07-06T03:12:54;100689.47;;;15.21;100.00
61524;BME280;47393;38.758;-9.164;2022-07-06T03:14:55;100657.22;;;15.08;100.00
61524;BME280;47393;38.758;-9.164;2022-07-06T03:16:57;100680.34;;;15.16;100.00
61524;BME280;47393;38.758;-9.164;2022-07-06T03:18:58;100697.50;;;15.39;100.00
61524;BME280;47393;38.758;-9.164;2022-07-06T03:20:59;100669.38;;;15.29;100.00
61524;BME280;47393;38.758;-9.164;2022-07-06T03:23:00;100701.38;;;15.45;100.00
61524;BME280;47393;38.758;-9.164;2022-07-06T03:25:01;100677.72;;;15.34;100.00
61524;BME280;47393;38.758;-9.164;2022-07-06T03:27:10;100681.13;;;15.26;100.00
61524;BME280;47393;38.758;-9.164;2022-07-06T03:29:18;100644.16;;;14.97;100.00
61524;BME280;47393;38.758;-9.164;2022-07-06T03:31:28;100651.91;;;15.08;100.00
61524;BME280;47393;38.758;-9.164;2022-07-06T03:33:33;100626.69;;;14.76;100.00
61524;BME280;47393;38.758;-9.164;2022-07-06T03:35:42;100623.06;;;14.77;100.00
61524;BME280;47393;38.758;-9.164;2022-07-06T03:37:45;100663.34;;;15.09;100.00
61524;BME280;47393;38.758;-9.164;2022-07-06T03:39:48;100694.88;;;15.30;100.00
61524;BME280;47393;38.758;-9.164;2022-07-06T03:41:49;100716.66;;;15.51;100.00
61524;BME280;47393;38.758;-9.164;2022-07-06T03:43:56;100718.59;;;15.59;100.00
61524;BME280;47393;38.758;-9.164;2022-07-06T03:45:57;100718.28;;;15.62;100.00
61524;BME280;47393;38.758;-9.164;2022-07-06T03:47:58;100718.81;;;15.66;100.00
61524;BME280;47393;38.758;-9.164;2022-07-06T03:49:59;100694.34;;;15.54;100.00
61524;BME280;47393;38.758;-9.164;2022-07-06T03:52:01;100686.44;;;15.44;100.00
61524;BME280;47393;38.758;-9.164;2022-07-06T03:54:06;100728.81;;;15.54;100.00
61524;BME280;47393;38.758;-9.164;2022-07-06T03:56:07;100712.78;;;15.46;100.00
61524;BME280;47393;38.758;-9.164;2022-07-06T03:58:27;100716.72;;;15.42;100.00
61524;BME280;47393;38.758;-9.164;2022-07-06T04:00:31;100699.13;;;15.22;100.00
61524;BME280;47393;38.758;-9.164;2022-07-06T04:02:37;100713.47;;;15.20;100.00
61524;BME280;47393;38.758;-9.164;2022-07-06T04:04:39;100718.63;;;15.21;100.00
61524;BME280;47393;38.758;-9.164;2022-07-06T04:06:40;100711.72;;;15.11;100.00
61524;BME280;47393;38.758;-9.164;2022-07-06T04:08:43;100710.78;;;15.02;100.00
61524;BME280;47393;38.758;-9.164;2022-07-06T04:10:45;100710.22;;;14.98;100.00
61524;BME280;47393;38.758;-9.164;2022-07-06T04:12:46;100721.38;;;15.02;100.00
61524;BME280;47393;38.758;-9.164;2022-07-06T04:14:49;100716.41;;;14.89;100.00
61524;BME280;47393;38.758;-9.164;2022-07-06T04:16:50;100723.88;;;15.03;100.00
61524;BME280;47393;38.758;-9.164;2022-07-06T04:18:54;100714.56;;;14.99;100.00
61524;BME280;47393;38.758;-9.164;2022-07-06T04:20:55;100712.72;;;15.00;100.00
61524;BME280;47393;38.758;-9.164;2022-07-06T04:22:58;100735.38;;;15.22;100.00
61524;BME280;47393;38.758;-9.164;2022-07-06T04:25:00;100720.47;;;15.21;100.00
61524;BME280;47393;38.758;-9.164;2022-07-06T04:27:02;100738.38;;;15.37;100.00
61524;BME280;47393;38.758;-9.164;2022-07-06T04:29:12;100727.91;;;15.35;100.00
61524;BME280;47393;38.758;-9.164;2022-07-06T04:31:16;100731.50;;;15.44;100.00
61524;BME280;47393;38.758;-9.164;2022-07-06T04:33:29;100736.44;;;15.39;100.00
61524;BME280;47393;38.758;-9.164;2022-07-06T04:35:31;100746.69;;;15.52;100.00
61524;BME280;47393;38.758;-9.164;2022-07-06T04:37:33;100734.50;;;15.59;100.00
61524;BME280;47393;38.758;-9.164;2022-07-06T04:39:34;100748.09;;;15.74;100.00
61524;BME280;47393;38.758;-9.164;2022-07-06T04:41:38;100737.16;;;15.77;100.00
61524;BME280;47393;38.758;-9.164;2022-07-06T04:43:42;100753.59;;;15.90;100.00
61524;BME280;47393;38.758;-9.164;2022-07-06T04:45:46;100754.94;;;15.95;100.00
61524;BME280;47393;38.758;-9.164;2022-07-06T04:47:47;100764.00;;;16.02;100.00
61524;BME280;47393;38.758;-9.164;2022-07-06T04:49:49;100769.81;;;16.05;100.00
61524;BME280;47393;38.758;-9.164;2022-07-06T04:51:49;100743.34;;;15.96;100.00
61524;BME280;47393;38.758;-9.164;2022-07-06T04:53:50;100774.53;;;16.12;100.00
61524;BME280;47393;38.758;-9.164;2022-07-06T04:55:52;100780.38;;;16.15;100.00
61524;BME280;47393;38.758;-9.164;2022-07-06T04:57:54;100780.84;;;16.11;100.00
61524;BME280;47393;38.758;-9.164;2022-07-06T04:59:55;100788.19;;;16.17;100.00
61524;BME280;47393;38.758;-9.164;2022-07-06T05:01:56;100788.03;;;16.18;100.00
61524;BME280;47393;38.758;-9.164;2022-07-06T05:03:57;100782.72;;;16.18;100.00
61524;BME280;47393;38.758;-9.164;2022-07-06T05:05:59;100789.41;;;16.22;100.00
61524;BME280;47393;38.758;-9.164;2022-07-06T05:08:00;100777.88;;;16.14;100.00
61524;BME280;47393;38.758;-9.164;2022-07-06T05:10:02;100753.00;;;15.97;100.00
61524;BME280;47393;38.758;-9.164;2022-07-06T05:12:13;100741.97;;;15.91;100.00
61524;BME280;47393;38.758;-9.164;2022-07-06T05:14:14;100793.13;;;16.30;100.00
61524;BME280;47393;38.758;-9.164;2022-07-06T05:16:15;100750.44;;;16.05;100.00
61524;BME280;47393;38.758;-9.164;2022-07-06T05:18:19;100804.13;;;16.35;100.00
61524;BME280;47393;38.758;-9.164;2022-07-06T05:20:23;100760.88;;;16.06;100.00
61524;BME280;47393;38.758;-9.164;2022-07-06T05:22:25;100788.41;;;16.23;100.00
61524;BME280;47393;38.758;-9.164;2022-07-06T05:24:26;100771.59;;;16.15;100.00
61524;BME280;47393;38.758;-9.164;2022-07-06T05:26:27;100797.88;;;16.26;100.00
61524;BME280;47393;38.758;-9.164;2022-07-06T05:28:29;100803.25;;;16.34;100.00
61524;BME280;47393;38.758;-9.164;2022-07-06T05:30:33;100811.47;;;16.41;100.00
61524;BME280;47393;38.758;-9.164;2022-07-06T05:32:37;100811.47;;;16.41;100.00
61524;BME280;47393;38.758;-9.164;2022-07-06T05:34:38;100817.53;;;16.51;100.00
61524;BME280;47393;38.758;-9.164;2022-07-06T05:36:39;100791.50;;;16.37;100.00
61524;BME280;47393;38.758;-9.164;2022-07-06T05:38:43;100800.63;;;16.52;100.00
61524;BME280;47393;38.758;-9.164;2022-07-06T05:40:44;100795.63;;;16.49;100.00
61524;BME280;47393;38.758;-9.164;2022-07-06T05:42:45;100798.00;;;16.60;100.00
61524;BME280;47393;38.758;-9.164;2022-07-06T05:44:46;100819.25;;;16.78;100.00
61524;BME280;47393;38.758;-9.164;2022-07-06T05:46:47;100824.03;;;16.75;100.00
61524;BME280;47393;38.758;-9.164;2022-07-06T05:48:49;100817.41;;;16.79;100.00
61524;BME280;47393;38.758;-9.164;2022-07-06T05:51:08;100835.78;;;16.90;100.00
61524;BME280;47393;38.758;-9.164;2022-07-06T05:53:09;100838.13;;;16.93;100.00
61524;BME280;47393;38.758;-9.164;2022-07-06T05:55:12;100805.72;;;16.72;100.00
61524;BME280;47393;38.758;-9.164;2022-07-06T05:57:13;100836.84;;;16.98;100.00
61524;BME280;47393;38.758;-9.164;2022-07-06T05:59:13;100809.97;;;16.83;100.00
61524;BME280;47393;38.758;-9.164;2022-07-06T06:01:17;100821.84;;;16.88;100.00
61524;BME280;47393;38.758;-9.164;2022-07-06T06:03:25;100838.50;;;16.99;100.00
61524;BME280;47393;38.758;-9.164;2022-07-06T06:05:26;100835.38;;;17.03;100.00
61524;BME280;47393;38.758;-9.164;2022-07-06T06:07:41;100839.22;;;17.01;100.00
61524;BME280;47393;38.758;-9.164;2022-07-06T06:09:45;100769.97;;;16.58;100.00
61524;BME280;47393;38.758;-9.164;2022-07-06T06:11:49;100809.00;;;16.84;100.00
61524;BME280;47393;38.758;-9.164;2022-07-06T06:14:13;100751.06;;;16.43;100.00
61524;BME280;47393;38.758;-9.164;2022-07-06T06:16:19;100835.84;;;16.99;100.00
61524;BME280;47393;38.758;-9.164;2022-07-06T06:18:27;100829.56;;;17.00;100.00
61524;BME280;47393;38.758;-9.164;2022-07-06T06:20:42;100833.09;;;17.08;100.00
61524;BME280;47393;38.758;-9.164;2022-07-06T06:22:47;100856.97;;;17.26;100.00
61524;BME280;47393;38.758;-9.164;2022-07-06T06:24:55;100854.72;;;17.40;100.00
61524;BME280;47393;38.758;-9.164;2022-07-06T06:27:22;100810.59;;;17.21;100.00
61524;BME280;47393;38.758;-9.164;2022-07-06T06:29:27;100856.47;;;17.57;100.00
61524;BME280;47393;38.758;-9.164;2022-07-06T06:31:34;100855.50;;;17.58;100.00
61524;BME280;47393;38.758;-9.164;2022-07-06T06:33:39;100825.63;;;17.38;100.00
61524;BME280;47393;38.758;-9.164;2022-07-06T06:35:45;100847.09;;;17.45;100.00
61524;BME280;47393;38.758;-9.164;2022-07-06T06:37:46;100840.63;;;17.47;100.00
61524;BME280;47393;38.758;-9.164;2022-07-06T06:39:52;100854.69;;;17.66;100.00
61524;BME280;47393;38.758;-9.164;2022-07-06T06:42:19;100855.91;;;17.80;100.00
61524;BME280;47393;38.758;-9.164;2022-07-06T06:44:35;100766.22;;;17.21;100.00
61524;BME280;47393;38.758;-9.164;2022-07-06T06:46:41;100776.06;;;17.29;100.00
61524;BME280;47393;38.758;-9.164;2022-07-06T06:48:50;100857.59;;;17.89;100.00
61524;BME280;47393;38.758;-9.164;2022-07-06T06:50:51;100860.34;;;18.06;100.00
61524;BME280;47393;38.758;-9.164;2022-07-06T06:52:52;100851.06;;;18.10;100.00
61524;BME280;47393;38.758;-9.164;2022-07-06T06:54:56;100849.56;;;18.15;100.00
61524;BME280;47393;38.758;-9.164;2022-07-06T06:56:57;100834.56;;;18.06;100.00
61524;BME280;47393;38.758;-9.164;2022-07-06T06:58:58;100820.44;;;18.06;100.00
61524;BME280;47393;38.758;-9.164;2022-07-06T07:00:59;100821.13;;;18.16;100.00
61524;BME280;47393;38.758;-9.164;2022-07-06T07:03:06;100773.31;;;17.98;100.00
61524;BME280;47393;38.758;-9.164;2022-07-06T07:05:12;100766.16;;;17.90;100.00
61524;BME280;47393;38.758;-9.164;2022-07-06T07:07:22;100824.13;;;18.38;100.00
61524;BME280;47393;38.758;-9.164;2022-07-06T07:09:24;100861.28;;;18.56;100.00
61524;BME280;47393;38.758;-9.164;2022-07-06T07:11:26;100868.09;;;18.50;100.00
61524;BME280;47393;38.758;-9.164;2022-07-06T07:13:42;100780.16;;;18.01;100.00
61524;BME280;47393;38.758;-9.164;2022-07-06T07:16:07;100857.13;;;18.53;100.00
61524;BME280;47393;38.758;-9.164;2022-07-06T07:18:27;100793.31;;;18.10;100.00
61524;BME280;47393;38.758;-9.164;2022-07-06T07:20:34;100791.31;;;18.04;100.00
61524;BME280;47393;38.758;-9.164;2022-07-06T07:22:57;100872.47;;;18.76;100.00
61524;BME280;47393;38.758;-9.164;2022-07-06T07:25:14;100868.13;;;18.75;99.74
61524;BME280;47393;38.758;-9.164;2022-07-06T07:27:43;100786.16;;;18.11;99.17
61524;BME280;47393;38.758;-9.164;2022-07-06T07:29:44;100855.44;;;18.36;100.00
61524;BME280;47393;38.758;-9.164;2022-07-06T07:31:45;100848.31;;;18.53;100.00
61524;BME280;47393;38.758;-9.164;2022-07-06T07:33:52;100863.94;;;18.64;98.93
61524;BME280;47393;38.758;-9.164;2022-07-06T07:35:53;100808.16;;;18.29;98.54
61524;BME280;47393;38.758;-9.164;2022-07-06T07:37:54;100856.13;;;18.54;98.80
61524;BME280;47393;38.758;-9.164;2022-07-06T07:39:55;100864.13;;;18.54;98.64
61524;BME280;47393;38.758;-9.164;2022-07-06T07:41:56;100853.28;;;18.47;99.10
61524;BME280;47393;38.758;-9.164;2022-07-06T07:43:57;100848.31;;;18.69;97.28
61524;BME280;47393;38.758;-9.164;2022-07-06T07:45:58;100857.28;;;18.84;96.43
61524;BME280;47393;38.758;-9.164;2022-07-06T07:50:16;100841.06;;;19.44;92.14
61524;BME280;47393;38.758;-9.164;2022-07-06T07:52:17;100844.94;;;19.73;90.48
61524;BME280;47393;38.758;-9.164;2022-07-06T07:54:18;100881.56;;;20.58;86.70
61524;BME280;47393;38.758;-9.164;2022-07-06T07:56:25;100866.81;;;19.68;89.71
61524;BME280;47393;38.758;-9.164;2022-07-06T07:58:33;100847.69;;;19.56;89.83
61524;BME280;47393;38.758;-9.164;2022-07-06T08:00:37;100839.84;;;20.02;88.44
61524;BME280;47393;38.758;-9.164;2022-07-06T08:02:38;100838.03;;;20.72;83.87
61524;BME280;47393;38.758;-9.164;2022-07-06T08:04:40;100786.19;;;20.97;79.75
61524;BME280;47393;38.758;-9.164;2022-07-06T08:06:41;100840.28;;;22.40;74.27
61524;BME280;47393;38.758;-9.164;2022-07-06T08:08:42;100821.97;;;24.25;65.89
61524;BME280;47393;38.758;-9.164;2022-07-06T08:10:43;100856.34;;;25.96;60.22
61524;BME280;47393;38.758;-9.164;2022-07-06T08:12:45;100860.94;;;28.33;51.28
61524;BME280;47393;38.758;-9.164;2022-07-06T08:14:46;100894.25;;;30.57;46.11
61524;BME280;47393;38.758;-9.164;2022-07-06T08:16:47;100826.00;;;28.19;49.53
61524;BME280;47393;38.758;-9.164;2022-07-06T08:18:51;100900.94;;;30.37;46.01
61524;BME280;47393;38.758;-9.164;2022-07-06T08:20:56;100818.53;;;31.78;41.09
61524;BME280;47393;38.758;-9.164;2022-07-06T08:22:59;100840.94;;;32.45;39.60
61524;BME280;47393;38.758;-9.164;2022-07-06T08:25:00;100897.16;;;30.84;43.15
61524;BME280;47393;38.758;-9.164;2022-07-06T08:27:01;100902.53;;;31.74;40.66
61524;BME280;47393;38.758;-9.164;2022-07-06T08:29:06;100891.91;;;32.22;40.02
61524;BME280;47393;38.758;-9.164;2022-07-06T08:31:13;100861.44;;;34.27;35.57
61524;BME280;47393;38.758;-9.164;2022-07-06T08:33:14;100914.19;;;34.84;34.86
61524;BME280;47393;38.758;-9.164;2022-07-06T08:35:15;100918.25;;;35.07;33.90
61524;BME280;47393;38.758;-9.164;2022-07-06T08:37:16;100923.34;;;35.55;33.00
61524;BME280;47393;38.758;-9.164;2022-07-06T08:39:16;100873.22;;;35.65;32.25
61524;BME280;47393;38.758;-9.164;2022-07-06T08:41:18;100914.47;;;36.68;31.09
61524;BME280;47393;38.758;-9.164;2022-07-06T08:43:25;100918.16;;;38.04;29.40
61524;BME280;47393;38.758;-9.164;2022-07-06T08:45:26;100917.13;;;36.44;30.77
61524;BME280;47393;38.758;-9.164;2022-07-06T08:47:28;100921.22;;;36.02;31.63
61524;BME280;47393;38.758;-9.164;2022-07-06T08:49:32;100901.06;;;34.76;33.46
61524;BME280;47393;38.758;-9.164;2022-07-06T08:51:39;100897.38;;;33.77;34.83
61524;BME280;47393;38.758;-9.164;2022-07-06T08:53:50;100905.28;;;36.09;31.44
61524;BME280;47393;38.758;-9.164;2022-07-06T08:55:52;100890.75;;;36.53;30.36
61524;BME280;47393;38.758;-9.164;2022-07-06T08:57:55;100911.63;;;37.37;29.37
61524;BME280;47393;38.758;-9.164;2022-07-06T08:59:56;100895.69;;;36.17;30.70
61524;BME280;47393;38.758;-9.164;2022-07-06T09:02:06;100895.22;;;33.26;35.91
61524;BME280;47393;38.758;-9.164;2022-07-06T09:04:09;100892.34;;;32.41;38.15
61524;BME280;47393;38.758;-9.164;2022-07-06T09:06:14;100891.25;;;34.49;34.81
61524;BME280;47393;38.758;-9.164;2022-07-06T09:08:18;100886.66;;;33.60;35.19
61524;BME280;47393;38.758;-9.164;2022-07-06T09:10:23;100905.41;;;33.46;35.63
61524;BME280;47393;38.758;-9.164;2022-07-06T09:12:29;100908.88;;;32.94;36.84
61524;BME280;47393;38.758;-9.164;2022-07-06T09:14:30;100867.38;;;33.77;35.24
61524;BME280;47393;38.758;-9.164;2022-07-06T09:16:32;100883.53;;;31.79;38.00
61524;BME280;47393;38.758;-9.164;2022-07-06T09:18:37;100914.84;;;33.82;35.74
61524;BME280;47393;38.758;-9.164;2022-07-06T09:20:40;100898.16;;;32.50;37.45
61524;BME280;47393;38.758;-9.164;2022-07-06T09:22:42;100922.38;;;32.79;36.99
61524;BME280;47393;38.758;-9.164;2022-07-06T09:24:43;100943.56;;;34.05;34.73
61524;BME280;47393;38.758;-9.164;2022-07-06T09:26:44;100926.63;;;35.52;31.96
61524;BME280;47393;38.758;-9.164;2022-07-06T09:28:48;100939.50;;;35.51;32.01
61524;BME280;47393;38.758;-9.164;2022-07-06T09:30:54;100942.38;;;36.36;30.62
61524;BME280;47393;38.758;-9.164;2022-07-06T09:32:58;100925.72;;;36.27;31.44
61524;BME280;47393;38.758;-9.164;2022-07-06T09:34:59;100913.81;;;37.60;28.32
61524;BME280;47393;38.758;-9.164;2022-07-06T09:37:05;100936.00;;;38.25;27.98
61524;BME280;47393;38.758;-9.164;2022-07-06T09:39:26;100941.81;;;33.78;35.07
61524;BME280;47393;38.758;-9.164;2022-07-06T09:41:32;100933.56;;;35.13;32.80
61524;BME280;47393;38.758;-9.164;2022-07-06T09:43:34;100926.53;;;31.04;40.59
61524;BME280;47393;38.758;-9.164;2022-07-06T09:45:36;100937.06;;;31.56;39.89
61524;BME280;47393;38.758;-9.164;2022-07-06T09:47:38;100943.25;;;30.50;42.03
61524;BME280;47393;38.758;-9.164;2022-07-06T09:49:39;100930.72;;;30.61;41.99
61524;BME280;47393;38.758;-9.164;2022-07-06T09:51:40;100942.88;;;30.75;42.04
61524;BME280;47393;38.758;-9.164;2022-07-06T09:53:41;100913.44;;;30.84;41.44
61524;BME280;47393;38.758;-9.164;2022-07-06T09:55:47;100926.41;;;30.48;42.39
61524;BME280;47393;38.758;-9.164;2022-07-06T09:58:02;100927.94;;;31.63;39.96
61524;BME280;47393;38.758;-9.164;2022-07-06T10:00:07;100953.69;;;32.21;38.78
61524;BME280;47393;38.758;-9.164;2022-07-06T10:02:13;100873.50;;;31.80;38.64
61524;BME280;47393;38.758;-9.164;2022-07-06T10:04:14;100893.31;;;31.36;39.50
61524;BME280;47393;38.758;-9.164;2022-07-06T10:06:18;100903.34;;;31.74;39.09
61524;BME280;47393;38.758;-9.164;2022-07-06T10:08:24;100911.16;;;31.10;40.60
61524;BME280;47393;38.758;-9.164;2022-07-06T10:10:32;100890.63;;;31.19;39.62
61524;BME280;47393;38.758;-9.164;2022-07-06T10:12:40;100956.81;;;32.90;37.04
61524;BME280;47393;38.758;-9.164;2022-07-06T10:14:46;100958.00;;;32.45;38.00
61524;BME280;47393;38.758;-9.164;2022-07-06T10:16:58;100958.41;;;33.23;36.20
61524;BME280;47393;38.758;-9.164;2022-07-06T10:19:05;100941.94;;;32.21;37.84
61524;BME280;47393;38.758;-9.164;2022-07-06T10:21:10;100945.47;;;33.08;36.27
61524;BME280;47393;38.758;-9.164;2022-07-06T10:23:12;100911.97;;;31.94;38.17
61524;BME280;47393;38.758;-9.164;2022-07-06T10:25:17;100943.41;;;32.06;38.53
61524;BME280;47393;38.758;-9.164;2022-07-06T10:27:18;100966.66;;;31.36;40.29
61524;BME280;47393;38.758;-9.164;2022-07-06T10:29:19;100966.31;;;32.60;37.85
61524;BME280;47393;38.758;-9.164;2022-07-06T10:31:24;100913.47;;;32.06;38.63
61524;BME280;47393;38.758;-9.164;2022-07-06T10:33:26;100912.28;;;32.47;37.39
61524;BME280;47393;38.758;-9.164;2022-07-06T10:35:30;100923.91;;;33.39;35.95
61524;BME280;47393;38.758;-9.164;2022-07-06T10:37:38;100960.53;;;33.21;36.69